sensor_id;sensor_type;location;lat;lon;timestamp;pressure;altitude;pressure_sealevel;temperature;humidity
41862;BME280;27537;57.134;-2.136;2024-02-15T00:02:26;99827.97;;;8.40;100.00
41862;BME280;27537;57.134;-2.136;2024-02-15T00:04:53;99821.91;;;8.39;100.00
41862;BME280;27537;57.134;-2.136;2024-02-15T00:07:20;99819.22;;;8.41;100.00
41862;BME280;27537;57.134;-2.136;2024-02-15T00:09:49;99822.63;;;8.43;100.00
41862;BME280;27537;57.134;-2.136;2024-02-15T00:12:15;99821.91;;;8.39;100.00
41862;BME280;27537;57.134;-2.136;2024-02-15T00:14:42;99812.34;;;8.40;100.00
41862;BME280;27537;57.134;-2.136;2024-02-15T00:17:09;99809.22;;;8.52;100.00
41862;BME280;27537;57.134;-2.136;2024-02-15T00:19:36;99812.09;;;8.46;100.00
41862;BME280;27537;57.134;-2.136;2024-02-15T00:22:03;99818.38;;;8.40;100.00
41862;BME280;27537;57.134;-2.136;2024-02-15T00:24:31;99815.63;;;8.45;100.00
41862;BME280;27537;57.134;-2.136;2024-02-15T00:26:58;99813.91;;;8.44;100.00
41862;BME280;27537;57.134;-2.136;2024-02-15T00:29:25;99807.38;;;8.54;100.00
41862;BME280;27537;57.134;-2.136;2024-02-15T00:31:55;99808.16;;;8.56;100.00
41862;BME280;27537;57.134;-2.136;2024-02-15T00:34:23;99805.63;;;8.54;100.00
41862;BME280;27537;57.134;-2.136;2024-02-15T00:36:53;99801.41;;;8.52;100.00
41862;BME280;27537;57.134;-2.136;2024-02-15T00:39:19;99794.84;;;8.42;100.00
41862;BME280;27537;57.134;-2.136;2024-02-15T00:41:46;99785.50;;;8.57;100.00
41862;BME280;27537;57.134;-2.136;2024-02-15T00:44:13;99789.03;;;8.35;100.00
41862;BME280;27537;57.134;-2.136;2024-02-15T00:46:40;99793.28;;;8.38;100.00
41862;BME280;27537;57.134;-2.136;2024-02-15T00:49:08;99786.50;;;8.33;100.00
41862;BME280;27537;57.134;-2.136;2024-02-15T00:51:35;99782.47;;;8.47;100.00
41862;BME280;27537;57.134;-2.136;2024-02-15T00:54:03;99777.47;;;8.42;100.00
41862;BME280;27537;57.134;-2.136;2024-02-15T00:56:30;99778.16;;;8.46;100.00
41862;BME280;27537;57.134;-2.136;2024-02-15T00:59:01;99771.44;;;8.40;100.00
41862;BME280;27537;57.134;-2.136;2024-02-15T01:01:28;99757.09;;;8.30;100.00
41862;BME280;27537;57.134;-2.136;2024-02-15T01:03:55;99751.03;;;8.29;100.00
41862;BME280;27537;57.134;-2.136;2024-02-15T01:06:22;99753.66;;;8.29;100.00
41862;BME280;27537;57.134;-2.136;2024-02-15T01:08:49;99753.66;;;8.29;100.00
41862;BME280;27537;57.134;-2.136;2024-02-15T01:11:16;99750.53;;;8.21;100.00
41862;BME280;27537;57.134;-2.136;2024-02-15T01:13:43;99749.28;;;8.30;100.00
41862;BME280;27537;57.134;-2.136;2024-02-15T01:16:11;99756.84;;;8.36;100.00
41862;BME280;27537;57.134;-2.136;2024-02-15T01:18:37;99762.91;;;8.36;100.00
41862;BME280;27537;57.134;-2.136;2024-02-15T01:21:05;99764.22;;;8.47;100.00
41862;BME280;27537;57.134;-2.136;2024-02-15T01:23:31;99763.94;;;8.53;100.00
41862;BME280;27537;57.134;-2.136;2024-02-15T01:25:59;99757.34;;;8.44;100.00
41862;BME280;27537;57.134;-2.136;2024-02-15T01:28:27;99758.38;;;8.40;100.00
41862;BME280;27537;57.134;-2.136;2024-02-15T01:30:54;99749.41;;;8.47;100.00
41862;BME280;27537;57.134;-2.136;2024-02-15T01:33:21;99756.16;;;8.51;100.00
41862;BME280;27537;57.134;-2.136;2024-02-15T01:35:48;99748.22;;;8.54;100.00
41862;BME280;27537;57.134;-2.136;2024-02-15T01:38:15;99747.63;;;8.48;100.00
41862;BME280;27537;57.134;-2.136;2024-02-15T01:40:41;99749.06;;;8.55;100.00
41862;BME280;27537;57.134;-2.136;2024-02-15T01:43:09;99746.88;;;8.46;100.00
41862;BME280;27537;57.134;-2.136;2024-02-15T01:45:35;99744.63;;;8.57;100.00
41862;BME280;27537;57.134;-2.136;2024-02-15T01:48:02;99748.66;;;8.64;100.00
41862;BME280;27537;57.134;-2.136;2024-02-15T01:50:31;99745.25;;;8.62;100.00
41862;BME280;27537;57.134;-2.136;2024-02-15T01:53:01;99737.59;;;8.59;100.00
41862;BME280;27537;57.134;-2.136;2024-02-15T01:55:32;99734.25;;;8.55;100.00
41862;BME280;27537;57.134;-2.136;2024-02-15T01:58:01;99728.19;;;8.55;100.00
41862;BME280;27537;57.134;-2.136;2024-02-15T02:00:28;99719.38;;;8.58;100.00
41862;BME280;27537;57.134;-2.136;2024-02-15T02:02:57;99723.19;;;8.50;100.00
41862;BME280;27537;57.134;-2.136;2024-02-15T02:05:28;99716.59;;;8.42;100.00
41862;BME280;27537;57.134;-2.136;2024-02-15T02:07:56;99724.25;;;8.65;100.00
41862;BME280;27537;57.134;-2.136;2024-02-15T02:10:26;99714.31;;;8.54;100.00
41862;BME280;27537;57.134;-2.136;2024-02-15T02:12:54;99713.41;;;8.55;100.00
41862;BME280;27537;57.134;-2.136;2024-02-15T02:15:21;99711.06;;;8.49;100.00
41862;BME280;27537;57.134;-2.136;2024-02-15T02:17:50;99702.44;;;8.47;100.00
41862;BME280;27537;57.134;-2.136;2024-02-15T02:20:21;99700.84;;;8.45;100.00
41862;BME280;27537;57.134;-2.136;2024-02-15T02:22:50;99704.78;;;8.53;100.00
41862;BME280;27537;57.134;-2.136;2024-02-15T02:25:18;99692.00;;;8.47;100.00
41862;BME280;27537;57.134;-2.136;2024-02-15T02:27:45;99680.88;;;8.63;100.00
41862;BME280;27537;57.134;-2.136;2024-02-15T02:30:15;99687.94;;;8.61;100.00
41862;BME280;27537;57.134;-2.136;2024-02-15T02:32:45;99679.81;;;8.67;100.00
41862;BME280;27537;57.134;-2.136;2024-02-15T02:35:15;99676.69;;;8.59;100.00
41862;BME280;27537;57.134;-2.136;2024-02-15T02:37:43;99680.00;;;8.62;100.00
41862;BME280;27537;57.134;-2.136;2024-02-15T02:40:10;99675.78;;;8.60;100.00
41862;BME280;27537;57.134;-2.136;2024-02-15T02:42:53;99672.13;;;8.64;100.00
41862;BME280;27537;57.134;-2.136;2024-02-15T02:45:20;99675.28;;;8.70;100.00
41862;BME280;27537;57.134;-2.136;2024-02-15T02:47:49;99669.00;;;8.74;100.00
41862;BME280;27537;57.134;-2.136;2024-02-15T02:50:22;99658.34;;;8.79;100.00
41862;BME280;27537;57.134;-2.136;2024-02-15T02:52:50;99667.09;;;8.78;100.00
41862;BME280;27537;57.134;-2.136;2024-02-15T02:55:17;99665.19;;;8.82;100.00
41862;BME280;27537;57.134;-2.136;2024-02-15T02:57:44;99663.31;;;8.66;100.00
41862;BME280;27537;57.134;-2.136;2024-02-15T03:00:13;99662.13;;;8.73;100.00
41862;BME280;27537;57.134;-2.136;2024-02-15T03:02:43;99654.28;;;8.73;100.00
41862;BME280;27537;57.134;-2.136;2024-02-15T03:05:10;99649.84;;;8.76;100.00
41862;BME280;27537;57.134;-2.136;2024-02-15T03:07:40;99651.38;;;8.80;100.00
41862;BME280;27537;57.134;-2.136;2024-02-15T03:10:08;99644.22;;;8.83;100.00
41862;BME280;27537;57.134;-2.136;2024-02-15T03:12:41;99643.72;;;8.77;100.00
41862;BME280;27537;57.134;-2.136;2024-02-15T03:15:15;99639.00;;;8.66;100.00
41862;BME280;27537;57.134;-2.136;2024-02-15T03:17:45;99640.41;;;8.73;100.00
41862;BME280;27537;57.134;-2.136;2024-02-15T03:20:13;99633.97;;;8.80;100.00
41862;BME280;27537;57.134;-2.136;2024-02-15T03:22:57;99637.56;;;8.78;100.00
41862;BME280;27537;57.134;-2.136;2024-02-15T03:25:25;99630.41;;;8.81;100.00
41862;BME280;27537;57.134;-2.136;2024-02-15T03:27:53;99636.47;;;8.82;100.00
41862;BME280;27537;57.134;-2.136;2024-02-15T03:30:21;99626.13;;;8.80;100.00
41862;BME280;27537;57.134;-2.136;2024-02-15T03:32:48;99626.13;;;8.80;100.00
41862;BME280;27537;57.134;-2.136;2024-02-15T03:35:19;99621.19;;;8.74;100.00
41862;BME280;27537;57.134;-2.136;2024-02-15T03:37:45;99615.28;;;8.70;100.00
41862;BME280;27537;57.134;-2.136;2024-02-15T03:40:12;99612.16;;;8.62;100.00
41862;BME280;27537;57.134;-2.136;2024-02-15T03:42:39;99617.13;;;8.68;100.00
41862;BME280;27537;57.134;-2.136;2024-02-15T03:45:06;99615.06;;;8.75;100.00
41862;BME280;27537;57.134;-2.136;2024-02-15T03:47:33;99613.09;;;8.80;100.00
41862;BME280;27537;57.134;-2.136;2024-02-15T03:50:05;99604.38;;;8.80;100.00
41862;BME280;27537;57.134;-2.136;2024-02-15T03:52:32;99599.47;;;8.73;100.00
41862;BME280;27537;57.134;-2.136;2024-02-15T03:54:59;99590.50;;;8.79;100.00
41862;BME280;27537;57.134;-2.136;2024-02-15T03:57:26;99591.91;;;8.86;100.00
41862;BME280;27537;57.134;-2.136;2024-02-15T03:59:52;99589.50;;;8.82;100.00
41862;BME280;27537;57.134;-2.136;2024-02-15T04:02:21;99596.34;;;8.84;100.00
41862;BME280;27537;57.134;-2.136;2024-02-15T04:04:49;99581.75;;;8.80;100.00
41862;BME280;27537;57.134;-2.136;2024-02-15T04:07:19;99581.59;;;8.83;100.00
41862;BME280;27537;57.134;-2.136;2024-02-15T04:09:45;99580.75;;;8.83;100.00
41862;BME280;27537;57.134;-2.136;2024-02-15T04:12:12;99575.75;;;8.78;100.00
41862;BME280;27537;57.134;-2.136;2024-02-15T04:14:40;99579.28;;;8.77;100.00
41862;BME280;27537;57.134;-2.136;2024-02-15T04:17:07;99576.97;;;8.71;100.00
41862;BME280;27537;57.134;-2.136;2024-02-15T04:19:34;99576.84;;;8.55;100.00
41862;BME280;27537;57.134;-2.136;2024-02-15T04:22:01;99575.03;;;8.38;100.00
41862;BME280;27537;57.134;-2.136;2024-02-15T04:24:30;99571.94;;;8.30;100.00
41862;BME280;27537;57.134;-2.136;2024-02-15T04:26:58;99563.69;;;8.20;100.00
41862;BME280;27537;57.134;-2.136;2024-02-15T04:29:25;99567.66;;;8.29;100.00
41862;BME280;27537;57.134;-2.136;2024-02-15T04:31:52;99575.47;;;8.29;100.00
41862;BME280;27537;57.134;-2.136;2024-02-15T04:34:21;99572.06;;;8.27;100.00
41862;BME280;27537;57.134;-2.136;2024-02-15T04:36:48;99568.63;;;8.26;100.00
41862;BME280;27537;57.134;-2.136;2024-02-15T04:39:21;99574.66;;;8.27;100.00
41862;BME280;27537;57.134;-2.136;2024-02-15T04:41:53;99570.53;;;8.23;100.00
41862;BME280;27537;57.134;-2.136;2024-02-15T04:44:21;99572.06;;;8.27;100.00
41862;BME280;27537;57.134;-2.136;2024-02-15T04:46:48;99567.00;;;8.24;100.00
41862;BME280;27537;57.134;-2.136;2024-02-15T04:49:18;99559.97;;;8.26;100.00
41862;BME280;27537;57.134;-2.136;2024-02-15T04:51:45;99553.75;;;8.28;100.00
41862;BME280;27537;57.134;-2.136;2024-02-15T04:54:14;99553.34;;;8.18;100.00
41862;BME280;27537;57.134;-2.136;2024-02-15T04:56:42;99557.41;;;8.24;100.00
41862;BME280;27537;57.134;-2.136;2024-02-15T04:59:09;99555.13;;;8.18;100.00
41862;BME280;27537;57.134;-2.136;2024-02-15T05:01:38;99555.69;;;8.06;100.00
41862;BME280;27537;57.134;-2.136;2024-02-15T05:04:06;99552.84;;;7.91;100.00
41862;BME280;27537;57.134;-2.136;2024-02-15T05:06:33;99547.91;;;7.85;100.00
41862;BME280;27537;57.134;-2.136;2024-02-15T05:09:00;99548.09;;;7.80;100.00
41862;BME280;27537;57.134;-2.136;2024-02-15T05:11:27;99544.66;;;7.80;100.00
41862;BME280;27537;57.134;-2.136;2024-02-15T05:13:55;99543.59;;;7.84;100.00
41862;BME280;27537;57.134;-2.136;2024-02-15T05:16:22;99544.25;;;7.89;100.00
41862;BME280;27537;57.134;-2.136;2024-02-15T05:18:48;99543.97;;;7.95;100.00
41862;BME280;27537;57.134;-2.136;2024-02-15T05:21:16;99535.53;;;7.90;100.00
41862;BME280;27537;57.134;-2.136;2024-02-15T05:23:43;99535.66;;;7.87;100.00
41862;BME280;27537;57.134;-2.136;2024-02-15T05:26:10;99535.53;;;7.90;100.00
41862;BME280;27537;57.134;-2.136;2024-02-15T05:28:38;99530.38;;;7.89;100.00
41862;BME280;27537;57.134;-2.136;2024-02-15T05:31:23;99527.25;;;7.80;100.00
41862;BME280;27537;57.134;-2.136;2024-02-15T05:33:53;99519.03;;;7.71;100.00
41862;BME280;27537;57.134;-2.136;2024-02-15T05:36:21;99521.97;;;7.63;100.00
41862;BME280;27537;57.134;-2.136;2024-02-15T05:38:51;99520.66;;;7.54;100.00
41862;BME280;27537;57.134;-2.136;2024-02-15T05:41:18;99519.00;;;7.52;100.00
41862;BME280;27537;57.134;-2.136;2024-02-15T05:43:46;99528.13;;;7.41;100.00
41862;BME280;27537;57.134;-2.136;2024-02-15T05:46:14;99512.84;;;7.34;100.00
41862;BME280;27537;57.134;-2.136;2024-02-15T05:48:41;99507.44;;;7.38;100.00
41862;BME280;27537;57.134;-2.136;2024-02-15T05:51:08;99514.06;;;7.46;100.00
41862;BME280;27537;57.134;-2.136;2024-02-15T05:53:35;99509.13;;;7.39;100.00
41862;BME280;27537;57.134;-2.136;2024-02-15T05:56:06;99506.47;;;7.41;100.00
41862;BME280;27537;57.134;-2.136;2024-02-15T05:58:34;99503.19;;;7.56;100.00
41862;BME280;27537;57.134;-2.136;2024-02-15T06:01:02;99495.50;;;7.53;100.00
41862;BME280;27537;57.134;-2.136;2024-02-15T06:03:32;99495.50;;;7.53;100.00
41862;BME280;27537;57.134;-2.136;2024-02-15T06:06:00;99499.81;;;7.54;100.00
41862;BME280;27537;57.134;-2.136;2024-02-15T06:08:29;99489.50;;;7.51;100.00
41862;BME280;27537;57.134;-2.136;2024-02-15T06:10:58;99484.94;;;7.56;100.00
41862;BME280;27537;57.134;-2.136;2024-02-15T06:13:25;99485.38;;;7.47;100.00
41862;BME280;27537;57.134;-2.136;2024-02-15T06:15:53;99488.78;;;7.29;100.00
41862;BME280;27537;57.134;-2.136;2024-02-15T06:18:21;99481.03;;;7.27;100.00
41862;BME280;27537;57.134;-2.136;2024-02-15T06:20:51;99479.47;;;7.23;100.00
41862;BME280;27537;57.134;-2.136;2024-02-15T06:23:21;99472.66;;;7.39;100.00
41862;BME280;27537;57.134;-2.136;2024-02-15T06:25:51;99475.78;;;7.48;100.00
41862;BME280;27537;57.134;-2.136;2024-02-15T06:28:20;99470.44;;;7.51;100.00
41862;BME280;27537;57.134;-2.136;2024-02-15T06:31:07;99473.25;;;7.46;100.00
41862;BME280;27537;57.134;-2.136;2024-02-15T06:33:52;99468.69;;;7.51;100.00
41862;BME280;27537;57.134;-2.136;2024-02-15T06:36:46;99459.03;;;7.53;100.00
41862;BME280;27537;57.134;-2.136;2024-02-15T06:39:32;99453.81;;;7.53;100.00
41862;BME280;27537;57.134;-2.136;2024-02-15T06:42:15;99456.44;;;7.53;100.00
41862;BME280;27537;57.134;-2.136;2024-02-15T06:44:48;99449.59;;;7.51;100.00
41862;BME280;27537;57.134;-2.136;2024-02-15T06:47:15;99446.78;;;7.55;100.00
41862;BME280;27537;57.134;-2.136;2024-02-15T06:49:47;99449.44;;;7.54;100.00
41862;BME280;27537;57.134;-2.136;2024-02-15T06:52:18;99439.19;;;7.51;100.00
41862;BME280;27537;57.134;-2.136;2024-02-15T06:54:45;99448.31;;;7.59;100.00
41862;BME280;27537;57.134;-2.136;2024-02-15T06:57:12;99446.28;;;7.66;100.00
41862;BME280;27537;57.134;-2.136;2024-02-15T06:59:38;99440.88;;;7.71;100.00
41862;BME280;27537;57.134;-2.136;2024-02-15T07:02:06;99441.63;;;7.73;100.00
41862;BME280;27537;57.134;-2.136;2024-02-15T07:04:35;99437.19;;;7.75;100.00
41862;BME280;27537;57.134;-2.136;2024-02-15T07:07:03;99434.38;;;7.79;100.00
41862;BME280;27537;57.134;-2.136;2024-02-15T07:09:30;99435.41;;;7.75;100.00
41862;BME280;27537;57.134;-2.136;2024-02-15T07:11:57;99428.31;;;7.79;100.00
41862;BME280;27537;57.134;-2.136;2024-02-15T07:14:25;99430.06;;;7.78;100.00
41862;BME280;27537;57.134;-2.136;2024-02-15T07:16:54;99424.94;;;7.77;100.00
41862;BME280;27537;57.134;-2.136;2024-02-15T07:19:24;99416.41;;;7.73;100.00
41862;BME280;27537;57.134;-2.136;2024-02-15T07:21:51;99411.22;;;7.73;100.00
41862;BME280;27537;57.134;-2.136;2024-02-15T07:24:18;99400.78;;;7.73;100.00
41862;BME280;27537;57.134;-2.136;2024-02-15T07:26:45;99402.13;;;7.82;100.00
41862;BME280;27537;57.134;-2.136;2024-02-15T07:29:12;99399.66;;;7.79;100.00
41862;BME280;27537;57.134;-2.136;2024-02-15T07:31:41;99383.88;;;7.82;100.00
41862;BME280;27537;57.134;-2.136;2024-02-15T07:34:08;99383.72;;;7.85;100.00
41862;BME280;27537;57.134;-2.136;2024-02-15T07:36:35;99393.25;;;7.86;100.00
41862;BME280;27537;57.134;-2.136;2024-02-15T07:39:02;99381.63;;;7.93;100.00
41862;BME280;27537;57.134;-2.136;2024-02-15T07:41:30;99388.44;;;7.96;100.00
41862;BME280;27537;57.134;-2.136;2024-02-15T07:44:00;99377.31;;;7.92;100.00
41862;BME280;27537;57.134;-2.136;2024-02-15T07:46:28;99372.78;;;7.96;100.00
41862;BME280;27537;57.134;-2.136;2024-02-15T07:48:55;99372.84;;;7.94;100.00
41862;BME280;27537;57.134;-2.136;2024-02-15T07:51:23;99382.03;;;7.84;100.00
41862;BME280;27537;57.134;-2.136;2024-02-15T07:53:51;99380.06;;;7.89;100.00
41862;BME280;27537;57.134;-2.136;2024-02-15T07:56:18;99379.22;;;7.89;100.00
41862;BME280;27537;57.134;-2.136;2024-02-15T07:58:47;99378.44;;;7.87;100.00
41862;BME280;27537;57.134;-2.136;2024-02-15T08:01:19;99381.72;;;7.73;100.00
41862;BME280;27537;57.134;-2.136;2024-02-15T08:03:52;99372.50;;;7.66;100.00
41862;BME280;27537;57.134;-2.136;2024-02-15T08:06:21;99364.19;;;7.57;100.00
41862;BME280;27537;57.134;-2.136;2024-02-15T08:08:52;99365.13;;;7.56;100.00
41862;BME280;27537;57.134;-2.136;2024-02-15T08:11:19;99370.28;;;7.58;100.00
41862;BME280;27537;57.134;-2.136;2024-02-15T08:13:50;99367.34;;;7.64;100.00
41862;BME280;27537;57.134;-2.136;2024-02-15T08:16:21;99360.94;;;7.71;100.00
41862;BME280;27537;57.134;-2.136;2024-02-15T08:18:54;99357.88;;;7.80;100.00
41862;BME280;27537;57.134;-2.136;2024-02-15T08:21:26;99356.16;;;7.81;100.00
41862;BME280;27537;57.134;-2.136;2024-02-15T08:23:53;99349.72;;;7.88;100.00
41862;BME280;27537;57.134;-2.136;2024-02-15T08:26:22;99349.78;;;7.87;100.00
41862;BME280;27537;57.134;-2.136;2024-02-15T08:28:49;99350.47;;;7.90;100.00
41862;BME280;27537;57.134;-2.136;2024-02-15T08:31:15;99352.78;;;7.96;100.00
41862;BME280;27537;57.134;-2.136;2024-02-15T08:33:42;99364.38;;;8.08;100.00
41862;BME280;27537;57.134;-2.136;2024-02-15T08:36:12;99352.34;;;8.06;100.00
41862;BME280;27537;57.134;-2.136;2024-02-15T08:38:42;99342.00;;;8.04;100.00
41862;BME280;27537;57.134;-2.136;2024-02-15T08:41:12;99347.41;;;7.99;100.00
41862;BME280;27537;57.134;-2.136;2024-02-15T08:43:38;99342.06;;;8.03;100.00
41862;BME280;27537;57.134;-2.136;2024-02-15T08:46:08;99337.69;;;8.03;100.00
41862;BME280;27537;57.134;-2.136;2024-02-15T08:48:35;99334.47;;;7.98;100.00
41862;BME280;27537;57.134;-2.136;2024-02-15T08:51:02;99330.41;;;7.92;100.00
41862;BME280;27537;57.134;-2.136;2024-02-15T08:53:29;99331.09;;;7.96;100.00
41862;BME280;27537;57.134;-2.136;2024-02-15T08:55:59;99329.50;;;7.93;100.00
41862;BME280;27537;57.134;-2.136;2024-02-15T08:58:26;99323.97;;;7.99;100.00
41862;BME280;27537;57.134;-2.136;2024-02-15T09:00:53;99333.09;;;8.08;100.00
41862;BME280;27537;57.134;-2.136;2024-02-15T09:03:21;99333.16;;;8.07;100.00
41862;BME280;27537;57.134;-2.136;2024-02-15T09:05:47;99336.47;;;8.10;100.00
41862;BME280;27537;57.134;-2.136;2024-02-15T09:08:15;99324.13;;;8.14;100.00
41862;BME280;27537;57.134;-2.136;2024-02-15T09:10:42;99323.34;;;8.12;100.00
41862;BME280;27537;57.134;-2.136;2024-02-15T09:13:09;99317.53;;;8.07;100.00
41862;BME280;27537;57.134;-2.136;2024-02-15T09:15:35;99307.16;;;8.05;100.00
41862;BME280;27537;57.134;-2.136;2024-02-15T09:18:02;99313.94;;;8.09;100.00
41862;BME280;27537;57.134;-2.136;2024-02-15T09:20:29;99309.47;;;8.11;100.00
41862;BME280;27537;57.134;-2.136;2024-02-15T09:22:58;99317.28;;;7.94;100.00
41862;BME280;27537;57.134;-2.136;2024-02-15T09:25:38;99310.31;;;7.94;100.00
41862;BME280;27537;57.134;-2.136;2024-02-15T09:28:05;99304.72;;;7.85;100.00
41862;BME280;27537;57.134;-2.136;2024-02-15T09:30:32;99311.69;;;7.84;100.00
41862;BME280;27537;57.134;-2.136;2024-02-15T09:32:59;99299.44;;;7.86;100.00
41862;BME280;27537;57.134;-2.136;2024-02-15T09:35:26;99312.97;;;7.93;100.00
41862;BME280;27537;57.134;-2.136;2024-02-15T09:37:53;99296.28;;;7.97;100.00
41862;BME280;27537;57.134;-2.136;2024-02-15T09:40:22;99286.50;;;8.02;100.00
41862;BME280;27537;57.134;-2.136;2024-02-15T09:42:52;99284.16;;;8.13;100.00
41862;BME280;27537;57.134;-2.136;2024-02-15T09:45:19;99280.72;;;8.13;100.00
41862;BME280;27537;57.134;-2.136;2024-02-15T09:47:47;99276.97;;;8.18;100.00
41862;BME280;27537;57.134;-2.136;2024-02-15T09:50:17;99276.47;;;8.28;100.00
41862;BME280;27537;57.134;-2.136;2024-02-15T09:52:51;99271.19;;;8.29;100.00
41862;BME280;27537;57.134;-2.136;2024-02-15T09:55:18;99270.66;;;8.23;100.00
41862;BME280;27537;57.134;-2.136;2024-02-15T09:57:46;99266.59;;;8.34;100.00
41862;BME280;27537;57.134;-2.136;2024-02-15T10:00:14;99274.72;;;8.28;100.00
41862;BME280;27537;57.134;-2.136;2024-02-15T10:02:44;99252.88;;;8.31;100.00
41862;BME280;27537;57.134;-2.136;2024-02-15T10:05:12;99265.34;;;8.42;100.00
41862;BME280;27537;57.134;-2.136;2024-02-15T10:07:43;99278.16;;;8.46;100.00
41862;BME280;27537;57.134;-2.136;2024-02-15T10:10:15;99270.34;;;8.46;100.00
41862;BME280;27537;57.134;-2.136;2024-02-15T10:12:51;99266.50;;;8.36;100.00
41862;BME280;27537;57.134;-2.136;2024-02-15T10:15:34;99269.66;;;8.43;100.00
41862;BME280;27537;57.134;-2.136;2024-02-15T10:18:04;99271.34;;;8.44;100.00
41862;BME280;27537;57.134;-2.136;2024-02-15T10:20:34;99265.97;;;8.47;100.00
41862;BME280;27537;57.134;-2.136;2024-02-15T10:25:37;99260.00;;;8.45;100.00
41862;BME280;27537;57.134;-2.136;2024-02-15T10:28:11;99262.06;;;8.55;100.00
41862;BME280;27537;57.134;-2.136;2024-02-15T10:30:42;99265.03;;;8.48;100.00
41862;BME280;27537;57.134;-2.136;2024-02-15T10:33:25;99260.75;;;8.47;100.00
41862;BME280;27537;57.134;-2.136;2024-02-15T10:36:09;99250.75;;;8.55;100.00
41862;BME280;27537;57.134;-2.136;2024-02-15T10:38:40;99255.53;;;8.47;100.00
41862;BME280;27537;57.134;-2.136;2024-02-15T10:41:07;99251.31;;;8.44;100.00
41862;BME280;27537;57.134;-2.136;2024-02-15T10:43:37;99246.19;;;8.43;100.00
41862;BME280;27537;57.134;-2.136;2024-02-15T10:46:05;99250.31;;;8.47;100.00
41862;BME280;27537;57.134;-2.136;2024-02-15T10:48:36;99244.84;;;8.51;100.00
41862;BME280;27537;57.134;-2.136;2024-02-15T10:51:09;99242.09;;;8.54;100.00
41862;BME280;27537;57.134;-2.136;2024-02-15T10:53:39;99247.59;;;8.66;100.00
41862;BME280;27537;57.134;-2.136;2024-02-15T10:56:17;99246.22;;;8.59;100.00
41862;BME280;27537;57.134;-2.136;2024-02-15T10:58:58;99239.81;;;8.48;100.00
41862;BME280;27537;57.134;-2.136;2024-02-15T11:01:27;99240.81;;;8.46;100.00
41862;BME280;27537;57.134;-2.136;2024-02-15T11:03:58;99240.81;;;8.46;100.00
41862;BME280;27537;57.134;-2.136;2024-02-15T11:06:27;99244.88;;;8.34;100.00
41862;BME280;27537;57.134;-2.136;2024-02-15T11:08:54;99234.34;;;8.35;100.00
41862;BME280;27537;57.134;-2.136;2024-02-15T11:11:22;99235.97;;;8.55;100.00
41862;BME280;27537;57.134;-2.136;2024-02-15T11:13:49;99228.53;;;8.48;100.00
41862;BME280;27537;57.134;-2.136;2024-02-15T11:16:42;99228.38;;;8.67;100.00
41862;BME280;27537;57.134;-2.136;2024-02-15T11:22:11;99229.88;;;8.55;100.00
41862;BME280;27537;57.134;-2.136;2024-02-15T11:24:51;99230.25;;;8.81;100.00
41862;BME280;27537;57.134;-2.136;2024-02-15T11:27:26;99223.53;;;8.92;100.00
41862;BME280;27537;57.134;-2.136;2024-02-15T11:29:54;99220.75;;;8.96;100.00
41862;BME280;27537;57.134;-2.136;2024-02-15T11:35:09;99218.88;;;9.13;100.00
41862;BME280;27537;57.134;-2.136;2024-02-15T11:40:22;99214.66;;;9.27;100.00
41862;BME280;27537;57.134;-2.136;2024-02-15T11:42:51;99206.66;;;9.30;100.00
41862;BME280;27537;57.134;-2.136;2024-02-15T11:45:20;99212.53;;;9.34;100.00
41862;BME280;27537;57.134;-2.136;2024-02-15T11:47:49;99213.63;;;9.29;100.00
41862;BME280;27537;57.134;-2.136;2024-02-15T11:50:18;99205.97;;;9.42;100.00
41862;BME280;27537;57.134;-2.136;2024-02-15T11:52:48;99200.13;;;9.53;100.00
41862;BME280;27537;57.134;-2.136;2024-02-15T11:55:21;99199.75;;;9.59;100.00
41862;BME280;27537;57.134;-2.136;2024-02-15T11:57:55;99201.38;;;9.76;100.00
41862;BME280;27537;57.134;-2.136;2024-02-15T12:00:29;99192.72;;;9.76;100.00
41862;BME280;27537;57.134;-2.136;2024-02-15T12:03:15;99197.44;;;9.69;100.00
41862;BME280;27537;57.134;-2.136;2024-02-15T12:06:01;99193.63;;;9.75;100.00
41862;BME280;27537;57.134;-2.136;2024-02-15T12:08:48;99191.13;;;9.87;100.00
41862;BME280;27537;57.134;-2.136;2024-02-15T12:11:33;99184.59;;;9.95;100.00
41862;BME280;27537;57.134;-2.136;2024-02-15T12:14:19;99181.25;;;9.93;100.00
41862;BME280;27537;57.134;-2.136;2024-02-15T12:17:06;99175.25;;;9.91;100.00
41862;BME280;27537;57.134;-2.136;2024-02-15T12:19:53;99168.91;;;9.95;100.00
41862;BME280;27537;57.134;-2.136;2024-02-15T12:22:31;99170.22;;;10.02;100.00
41862;BME280;27537;57.134;-2.136;2024-02-15T12:25:00;99169.03;;;10.07;100.00
41862;BME280;27537;57.134;-2.136;2024-02-15T12:27:27;99163.41;;;9.99;100.00
41862;BME280;27537;57.134;-2.136;2024-02-15T12:29:55;99167.44;;;10.05;100.00
41862;BME280;27537;57.134;-2.136;2024-02-15T12:32:23;99160.72;;;10.15;100.00
41862;BME280;27537;57.134;-2.136;2024-02-15T12:34:50;99163.25;;;10.17;100.00
41862;BME280;27537;57.134;-2.136;2024-02-15T12:37:20;99153.03;;;10.26;100.00
41862;BME280;27537;57.134;-2.136;2024-02-15T12:39:48;99151.94;;;10.31;100.00
41862;BME280;27537;57.134;-2.136;2024-02-15T12:42:16;99147.09;;;10.39;100.00
41862;BME280;27537;57.134;-2.136;2024-02-15T12:44:47;99153.44;;;10.49;100.00
41862;BME280;27537;57.134;-2.136;2024-02-15T12:47:21;99144.94;;;10.45;100.00
41862;BME280;27537;57.134;-2.136;2024-02-15T12:49:51;99142.88;;;10.51;100.00
41862;BME280;27537;57.134;-2.136;2024-02-15T12:52:37;99135.06;;;10.63;100.00
41862;BME280;27537;57.134;-2.136;2024-02-15T12:55:17;99134.63;;;10.71;100.00
41862;BME280;27537;57.134;-2.136;2024-02-15T12:57:46;99126.34;;;10.77;100.00
41862;BME280;27537;57.134;-2.136;2024-02-15T13:00:16;99122.34;;;10.72;100.00
41862;BME280;27537;57.134;-2.136;2024-02-15T13:02:48;99122.34;;;10.72;100.00
41862;BME280;27537;57.134;-2.136;2024-02-15T13:05:17;99114.78;;;10.67;100.00
41862;BME280;27537;57.134;-2.136;2024-02-15T13:07:52;99111.94;;;10.85;100.00
41862;BME280;27537;57.134;-2.136;2024-02-15T13:10:22;99108.69;;;10.94;100.00
41862;BME280;27537;57.134;-2.136;2024-02-15T13:12:51;99110.94;;;11.00;100.00
41862;BME280;27537;57.134;-2.136;2024-02-15T13:15:18;99102.38;;;10.83;100.00